sensor_id;sensor_type;location;lat;lon;timestamp;temperature;humidity
71184;DHT22;58887;51.980;4.464;2023-12-07T00:00:23;2.33;85.10
71184;DHT22;58887;51.980;4.464;2023-12-07T00:02:48;2.28;84.91
71184;DHT22;58887;51.980;4.464;2023-12-07T00:05:16;2.17;84.60
71184;DHT22;58887;51.980;4.464;2023-12-07T00:07:41;2.07;84.52
71184;DHT22;58887;51.980;4.464;2023-12-07T00:10:07;2.06;84.56
71184;DHT22;58887;51.980;4.464;2023-12-07T00:12:32;2.07;84.55
71184;DHT22;58887;51.980;4.464;2023-12-07T00:14:58;2.03;84.51
71184;DHT22;58887;51.980;4.464;2023-12-07T00:17:23;1.99;84.38
71184;DHT22;58887;51.980;4.464;2023-12-07T00:19:50;1.87;84.31
71184;DHT22;58887;51.980;4.464;2023-12-07T00:22:16;1.82;84.31
71184;DHT22;58887;51.980;4.464;2023-12-07T00:24:43;1.79;84.35
71184;DHT22;58887;51.980;4.464;2023-12-07T00:27:08;1.78;84.26
71184;DHT22;58887;51.980;4.464;2023-12-07T00:29:39;1.76;84.54
71184;DHT22;58887;51.980;4.464;2023-12-07T00:32:04;1.70;84.43
71184;DHT22;58887;51.980;4.464;2023-12-07T00:34:30;1.60;84.19
71184;DHT22;58887;51.980;4.464;2023-12-07T00:36:56;1.56;84.27
71184;DHT22;58887;51.980;4.464;2023-12-07T00:39:21;1.52;84.27
71184;DHT22;58887;51.980;4.464;2023-12-07T00:41:48;1.48;84.23
71184;DHT22;58887;51.980;4.464;2023-12-07T00:44:14;1.42;83.94
71184;DHT22;58887;51.980;4.464;2023-12-07T00:46:40;1.35;83.92
71184;DHT22;58887;51.980;4.464;2023-12-07T00:49:05;1.41;84.49
71184;DHT22;58887;51.980;4.464;2023-12-07T00:51:31;1.45;84.42
71184;DHT22;58887;51.980;4.464;2023-12-07T00:53:56;1.47;84.39
71184;DHT22;58887;51.980;4.464;2023-12-07T00:56:22;1.47;84.34
71184;DHT22;58887;51.980;4.464;2023-12-07T00:58:47;1.49;84.32
71184;DHT22;58887;51.980;4.464;2023-12-07T01:01:12;1.52;84.67
71184;DHT22;58887;51.980;4.464;2023-12-07T01:03:38;1.58;84.70
71184;DHT22;58887;51.980;4.464;2023-12-07T01:06:06;1.52;84.62
71184;DHT22;58887;51.980;4.464;2023-12-07T01:08:31;1.54;84.47
71184;DHT22;58887;51.980;4.464;2023-12-07T01:10:57;1.44;84.28
71184;DHT22;58887;51.980;4.464;2023-12-07T01:13:23;1.41;84.17
71184;DHT22;58887;51.980;4.464;2023-12-07T01:15:49;1.38;84.26
71184;DHT22;58887;51.980;4.464;2023-12-07T01:18:15;1.55;84.97
71184;DHT22;58887;51.980;4.464;2023-12-07T01:20:40;1.60;84.75
71184;DHT22;58887;51.980;4.464;2023-12-07T01:23:05;1.59;84.55
71184;DHT22;58887;51.980;4.464;2023-12-07T01:25:31;1.52;84.57
71184;DHT22;58887;51.980;4.464;2023-12-07T01:27:57;1.54;84.70
71184;DHT22;58887;51.980;4.464;2023-12-07T01:30:23;1.55;84.86
71184;DHT22;58887;51.980;4.464;2023-12-07T01:32:48;1.62;84.64
71184;DHT22;58887;51.980;4.464;2023-12-07T01:35:14;1.55;84.59
71184;DHT22;58887;51.980;4.464;2023-12-07T01:37:40;1.55;84.53
71184;DHT22;58887;51.980;4.464;2023-12-07T01:40:06;1.62;84.70
71184;DHT22;58887;51.980;4.464;2023-12-07T01:42:38;1.70;84.80
71184;DHT22;58887;51.980;4.464;2023-12-07T01:45:07;1.69;84.61
71184;DHT22;58887;51.980;4.464;2023-12-07T01:47:33;1.66;84.68
71184;DHT22;58887;51.980;4.464;2023-12-07T01:50:00;1.66;84.71
71184;DHT22;58887;51.980;4.464;2023-12-07T01:52:30;1.68;84.67
71184;DHT22;58887;51.980;4.464;2023-12-07T01:54:57;1.70;84.80
71184;DHT22;58887;51.980;4.464;2023-12-07T01:57:24;1.72;84.77
71184;DHT22;58887;51.980;4.464;2023-12-07T01:59:50;1.72;84.77
71184;DHT22;58887;51.980;4.464;2023-12-07T02:02:16;1.69;84.80
71184;DHT22;58887;51.980;4.464;2023-12-07T02:04:41;1.76;84.72
71184;DHT22;58887;51.980;4.464;2023-12-07T02:07:07;1.70;84.68
71184;DHT22;58887;51.980;4.464;2023-12-07T02:09:33;1.76;84.77
71184;DHT22;58887;51.980;4.464;2023-12-07T02:11:59;1.83;84.78
71184;DHT22;58887;51.980;4.464;2023-12-07T02:14:25;1.83;84.76
71184;DHT22;58887;51.980;4.464;2023-12-07T02:22:31;1.89;84.70
71184;DHT22;58887;51.980;4.464;2023-12-07T02:25:06;1.89;84.79
71184;DHT22;58887;51.980;4.464;2023-12-07T02:27:37;1.86;84.70
71184;DHT22;58887;51.980;4.464;2023-12-07T02:30:03;1.85;84.62
71184;DHT22;58887;51.980;4.464;2023-12-07T02:32:29;1.83;84.68
71184;DHT22;58887;51.980;4.464;2023-12-07T02:34:55;1.85;84.70
71184;DHT22;58887;51.980;4.464;2023-12-07T02:37:22;1.85;84.71
71184;DHT22;58887;51.980;4.464;2023-12-07T02:39:51;1.87;84.47
71184;DHT22;58887;51.980;4.464;2023-12-07T02:42:20;1.83;84.33
71184;DHT22;58887;51.980;4.464;2023-12-07T02:44:49;1.72;84.32
71184;DHT22;58887;51.980;4.464;2023-12-07T02:47:15;1.68;84.38
71184;DHT22;58887;51.980;4.464;2023-12-07T02:49:40;1.60;84.37
71184;DHT22;58887;51.980;4.464;2023-12-07T02:52:06;1.58;84.40
71184;DHT22;58887;51.980;4.464;2023-12-07T02:54:31;1.58;84.76
71184;DHT22;58887;51.980;4.464;2023-12-07T02:56:57;1.68;85.14
71184;DHT22;58887;51.980;4.464;2023-12-07T02:59:22;1.78;85.54
71184;DHT22;58887;51.980;4.464;2023-12-07T03:01:48;1.83;85.20
71184;DHT22;58887;51.980;4.464;2023-12-07T03:04:13;1.85;85.09
71184;DHT22;58887;51.980;4.464;2023-12-07T03:06:38;1.90;85.27
71184;DHT22;58887;51.980;4.464;2023-12-07T03:09:04;1.97;85.58
71184;DHT22;58887;51.980;4.464;2023-12-07T03:11:29;2.05;85.60
71184;DHT22;58887;51.980;4.464;2023-12-07T03:13:55;2.10;85.69
71184;DHT22;58887;51.980;4.464;2023-12-07T03:16:20;2.18;85.81
71184;DHT22;58887;51.980;4.464;2023-12-07T03:18:45;2.21;87.61
71184;DHT22;58887;51.980;4.464;2023-12-07T03:21:11;2.30;87.59
71184;DHT22;58887;51.980;4.464;2023-12-07T03:23:36;2.40;87.62
71184;DHT22;58887;51.980;4.464;2023-12-07T03:26:02;2.57;87.04
71184;DHT22;58887;51.980;4.464;2023-12-07T03:28:27;2.57;86.71
71184;DHT22;58887;51.980;4.464;2023-12-07T03:30:53;2.59;87.15
71184;DHT22;58887;51.980;4.464;2023-12-07T03:33:18;2.52;87.06
71184;DHT22;58887;51.980;4.464;2023-12-07T03:35:44;2.49;87.58
71184;DHT22;58887;51.980;4.464;2023-12-07T03:38:09;2.48;87.98
71184;DHT22;58887;51.980;4.464;2023-12-07T03:40:34;2.61;88.02
71184;DHT22;58887;51.980;4.464;2023-12-07T03:43:00;2.59;87.91
71184;DHT22;58887;51.980;4.464;2023-12-07T03:45:26;2.61;88.18
71184;DHT22;58887;51.980;4.464;2023-12-07T03:47:52;2.64;87.70
71184;DHT22;58887;51.980;4.464;2023-12-07T03:50:17;2.54;88.08
71184;DHT22;58887;51.980;4.464;2023-12-07T03:52:42;2.59;87.88
71184;DHT22;58887;51.980;4.464;2023-12-07T03:55:08;2.55;87.67
71184;DHT22;58887;51.980;4.464;2023-12-07T03:57:33;2.52;87.44
71184;DHT22;58887;51.980;4.464;2023-12-07T03:59:59;2.49;87.89
71184;DHT22;58887;51.980;4.464;2023-12-07T04:02:25;2.45;87.86
71184;DHT22;58887;51.980;4.464;2023-12-07T04:04:50;2.52;87.82
71184;DHT22;58887;51.980;4.464;2023-12-07T04:07:16;2.44;88.27
71184;DHT22;58887;51.980;4.464;2023-12-07T04:09:41;2.48;88.57
71184;DHT22;58887;51.980;4.464;2023-12-07T04:12:08;2.51;88.32
71184;DHT22;58887;51.980;4.464;2023-12-07T04:14:33;2.48;88.11
71184;DHT22;58887;51.980;4.464;2023-12-07T04:16:58;2.57;87.98
71184;DHT22;58887;51.980;4.464;2023-12-07T04:19:24;2.37;88.16
71184;DHT22;58887;51.980;4.464;2023-12-07T04:21:49;2.42;88.20
71184;DHT22;58887;51.980;4.464;2023-12-07T04:24:15;2.49;87.88
71184;DHT22;58887;51.980;4.464;2023-12-07T04:26:40;2.58;87.70
71184;DHT22;58887;51.980;4.464;2023-12-07T04:29:06;2.54;87.48
71184;DHT22;58887;51.980;4.464;2023-12-07T04:31:32;2.30;87.51
71184;DHT22;58887;51.980;4.464;2023-12-07T04:33:57;2.00;88.70
71184;DHT22;58887;51.980;4.464;2023-12-07T04:36:25;2.03;88.94
71184;DHT22;58887;51.980;4.464;2023-12-07T04:38:51;1.82;89.19
71184;DHT22;58887;51.980;4.464;2023-12-07T04:41:16;1.82;89.52
71184;DHT22;58887;51.980;4.464;2023-12-07T04:43:42;1.90;89.72
71184;DHT22;58887;51.980;4.464;2023-12-07T04:46:07;2.05;89.40
71184;DHT22;58887;51.980;4.464;2023-12-07T04:48:32;2.03;88.94
71184;DHT22;58887;51.980;4.464;2023-12-07T04:50:58;1.95;89.42
71184;DHT22;58887;51.980;4.464;2023-12-07T04:53:23;1.96;89.26
71184;DHT22;58887;51.980;4.464;2023-12-07T04:55:49;2.00;89.23
71184;DHT22;58887;51.980;4.464;2023-12-07T04:58:15;1.85;88.88
71184;DHT22;58887;51.980;4.464;2023-12-07T05:00:41;1.78;89.47
71184;DHT22;58887;51.980;4.464;2023-12-07T05:03:06;1.89;89.38
71184;DHT22;58887;51.980;4.464;2023-12-07T05:05:32;1.87;89.31
71184;DHT22;58887;51.980;4.464;2023-12-07T05:07:57;1.82;89.24
71184;DHT22;58887;51.980;4.464;2023-12-07T05:10:23;1.76;89.50
71184;DHT22;58887;51.980;4.464;2023-12-07T05:12:48;1.83;89.78
71184;DHT22;58887;51.980;4.464;2023-12-07T05:15:13;1.72;89.56
71184;DHT22;58887;51.980;4.464;2023-12-07T05:17:39;1.59;90.03
71184;DHT22;58887;51.980;4.464;2023-12-07T05:20:05;1.65;90.34
71184;DHT22;58887;51.980;4.464;2023-12-07T05:22:31;1.75;90.03
71184;DHT22;58887;51.980;4.464;2023-12-07T05:24:56;1.69;89.88
71184;DHT22;58887;51.980;4.464;2023-12-07T05:27:22;1.75;89.89
71184;DHT22;58887;51.980;4.464;2023-12-07T05:29:47;1.76;89.79
71184;DHT22;58887;51.980;4.464;2023-12-07T05:32:13;1.76;89.56
71184;DHT22;58887;51.980;4.464;2023-12-07T05:34:38;1.96;89.62
71184;DHT22;58887;51.980;4.464;2023-12-07T05:37:05;1.95;89.23
71184;DHT22;58887;51.980;4.464;2023-12-07T05:39:30;2.00;89.25
71184;DHT22;58887;51.980;4.464;2023-12-07T05:41:56;2.03;89.04
71184;DHT22;58887;51.980;4.464;2023-12-07T05:44:22;2.05;89.05
71184;DHT22;58887;51.980;4.464;2023-12-07T05:46:48;2.11;88.71
71184;DHT22;58887;51.980;4.464;2023-12-07T05:49:14;2.02;88.62
71184;DHT22;58887;51.980;4.464;2023-12-07T05:51:40;1.97;88.72
71184;DHT22;58887;51.980;4.464;2023-12-07T05:54:05;2.11;88.68
71184;DHT22;58887;51.980;4.464;2023-12-07T05:56:31;2.02;88.47
71184;DHT22;58887;51.980;4.464;2023-12-07T05:58:56;2.10;88.62
71184;DHT22;58887;51.980;4.464;2023-12-07T06:01:22;2.14;88.52
71184;DHT22;58887;51.980;4.464;2023-12-07T06:03:52;2.14;88.39
71184;DHT22;58887;51.980;4.464;2023-12-07T06:06:17;2.07;88.35
71184;DHT22;58887;51.980;4.464;2023-12-07T06:08:44;2.14;88.50
71184;DHT22;58887;51.980;4.464;2023-12-07T06:11:09;2.21;88.32
71184;DHT22;58887;51.980;4.464;2023-12-07T06:13:35;2.24;88.12
71184;DHT22;58887;51.980;4.464;2023-12-07T06:16:00;2.23;88.10
71184;DHT22;58887;51.980;4.464;2023-12-07T06:18:28;2.18;87.85
71184;DHT22;58887;51.980;4.464;2023-12-07T06:20:53;2.09;88.15
71184;DHT22;58887;51.980;4.464;2023-12-07T06:23:19;1.99;88.35
71184;DHT22;58887;51.980;4.464;2023-12-07T06:25:45;2.02;88.64
71184;DHT22;58887;51.980;4.464;2023-12-07T06:28:10;1.97;88.61
71184;DHT22;58887;51.980;4.464;2023-12-07T06:30:36;1.96;88.52
71184;DHT22;58887;51.980;4.464;2023-12-07T06:33:02;1.93;88.79
71184;DHT22;58887;51.980;4.464;2023-12-07T06:35:27;2.02;88.48
71184;DHT22;58887;51.980;4.464;2023-12-07T06:37:53;2.06;88.57
71184;DHT22;58887;51.980;4.464;2023-12-07T06:40:18;2.00;88.46
71184;DHT22;58887;51.980;4.464;2023-12-07T06:42:43;1.96;88.74
71184;DHT22;58887;51.980;4.464;2023-12-07T06:45:09;2.11;88.74
71184;DHT22;58887;51.980;4.464;2023-12-07T06:47:38;2.10;88.48
71184;DHT22;58887;51.980;4.464;2023-12-07T06:50:05;2.17;88.52
71184;DHT22;58887;51.980;4.464;2023-12-07T06:52:33;2.13;88.93
71184;DHT22;58887;51.980;4.464;2023-12-07T06:54:59;2.16;88.92
71184;DHT22;58887;51.980;4.464;2023-12-07T06:57:24;2.21;88.78
71184;DHT22;58887;51.980;4.464;2023-12-07T06:59:50;2.14;88.68
71184;DHT22;58887;51.980;4.464;2023-12-07T07:02:15;2.24;88.73
71184;DHT22;58887;51.980;4.464;2023-12-07T07:04:41;2.20;88.93
71184;DHT22;58887;51.980;4.464;2023-12-07T07:07:06;2.11;89.31
71184;DHT22;58887;51.980;4.464;2023-12-07T07:09:32;2.11;89.22
71184;DHT22;58887;51.980;4.464;2023-12-07T07:11:57;2.14;89.50
71184;DHT22;58887;51.980;4.464;2023-12-07T07:14:22;2.20;89.42
71184;DHT22;58887;51.980;4.464;2023-12-07T07:16:48;2.37;89.35
71184;DHT22;58887;51.980;4.464;2023-12-07T07:19:15;2.34;89.20
71184;DHT22;58887;51.980;4.464;2023-12-07T07:21:42;2.27;89.39
71184;DHT22;58887;51.980;4.464;2023-12-07T07:24:07;2.27;89.63
71184;DHT22;58887;51.980;4.464;2023-12-07T07:26:34;2.20;89.69
71184;DHT22;58887;51.980;4.464;2023-12-07T07:28:59;2.00;90.23
71184;DHT22;58887;51.980;4.464;2023-12-07T07:31:24;2.24;90.06
71184;DHT22;58887;51.980;4.464;2023-12-07T07:33:50;2.38;89.75
71184;DHT22;58887;51.980;4.464;2023-12-07T07:36:16;2.48;89.20
71184;DHT22;58887;51.980;4.464;2023-12-07T07:38:42;2.55;89.19
71184;DHT22;58887;51.980;4.464;2023-12-07T07:41:10;2.59;88.73
71184;DHT22;58887;51.980;4.464;2023-12-07T07:43:36;2.52;88.68
71184;DHT22;58887;51.980;4.464;2023-12-07T07:46:03;2.61;88.92
71184;DHT22;58887;51.980;4.464;2023-12-07T07:48:29;2.68;88.51
71184;DHT22;58887;51.980;4.464;2023-12-07T07:50:55;2.61;88.59
71184;DHT22;58887;51.980;4.464;2023-12-07T07:53:20;2.34;89.05
71184;DHT22;58887;51.980;4.464;2023-12-07T07:55:46;2.42;89.12
71184;DHT22;58887;51.980;4.464;2023-12-07T07:58:11;2.48;89.30
71184;DHT22;58887;51.980;4.464;2023-12-07T08:00:36;2.48;89.28
71184;DHT22;58887;51.980;4.464;2023-12-07T08:03:02;2.42;89.28
71184;DHT22;58887;51.980;4.464;2023-12-07T08:05:28;2.40;89.30
71184;DHT22;58887;51.980;4.464;2023-12-07T08:07:53;2.38;89.36
71184;DHT22;58887;51.980;4.464;2023-12-07T08:10:19;2.28;89.94
71184;DHT22;58887;51.980;4.464;2023-12-07T08:12:45;2.42;89.81
71184;DHT22;58887;51.980;4.464;2023-12-07T08:15:11;2.40;89.45
71184;DHT22;58887;51.980;4.464;2023-12-07T08:17:40;2.33;89.84
71184;DHT22;58887;51.980;4.464;2023-12-07T08:20:10;2.40;89.91
71184;DHT22;58887;51.980;4.464;2023-12-07T08:22:39;2.52;89.69
71184;DHT22;58887;51.980;4.464;2023-12-07T08:25:06;2.62;89.58
71184;DHT22;58887;51.980;4.464;2023-12-07T08:27:33;2.66;89.14
71184;DHT22;58887;51.980;4.464;2023-12-07T08:30:00;2.71;89.16
71184;DHT22;58887;51.980;4.464;2023-12-07T08:32:26;2.69;89.04
71184;DHT22;58887;51.980;4.464;2023-12-07T08:34:52;2.62;89.14
71184;DHT22;58887;51.980;4.464;2023-12-07T08:37:18;2.79;89.13
71184;DHT22;58887;51.980;4.464;2023-12-07T08:39:45;2.74;88.98
71184;DHT22;58887;51.980;4.464;2023-12-07T08:42:10;2.72;89.38
71184;DHT22;58887;51.980;4.464;2023-12-07T08:44:36;2.81;89.12
71184;DHT22;58887;51.980;4.464;2023-12-07T08:47:02;2.74;89.33
71184;DHT22;58887;51.980;4.464;2023-12-07T08:49:27;2.74;89.29
71184;DHT22;58887;51.980;4.464;2023-12-07T08:51:53;2.74;89.34
71184;DHT22;58887;51.980;4.464;2023-12-07T08:54:19;2.74;89.51
71184;DHT22;58887;51.980;4.464;2023-12-07T08:56:45;2.59;90.07
71184;DHT22;58887;51.980;4.464;2023-12-07T08:59:11;2.64;90.29
71184;DHT22;58887;51.980;4.464;2023-12-07T09:01:36;2.64;90.25
71184;DHT22;58887;51.980;4.464;2023-12-07T09:04:02;2.74;90.36
71184;DHT22;58887;51.980;4.464;2023-12-07T09:06:28;2.66;90.27
71184;DHT22;58887;51.980;4.464;2023-12-07T09:08:55;2.78;90.43
71184;DHT22;58887;51.980;4.464;2023-12-07T09:11:20;2.78;90.37
71184;DHT22;58887;51.980;4.464;2023-12-07T09:13:46;2.68;90.81
71184;DHT22;58887;51.980;4.464;2023-12-07T09:16:12;2.75;90.94
71184;DHT22;58887;51.980;4.464;2023-12-07T09:18:38;2.85;90.71
71184;DHT22;58887;51.980;4.464;2023-12-07T09:21:04;3.05;90.41
71184;DHT22;58887;51.980;4.464;2023-12-07T09:23:31;3.02;90.31
71184;DHT22;58887;51.980;4.464;2023-12-07T09:25:57;3.05;90.11
71184;DHT22;58887;51.980;4.464;2023-12-07T09:28:23;3.16;90.28
71184;DHT22;58887;51.980;4.464;2023-12-07T09:30:49;3.20;90.06
71184;DHT22;58887;51.980;4.464;2023-12-07T09:33:15;3.09;90.07
71184;DHT22;58887;51.980;4.464;2023-12-07T09:35:41;3.22;90.13
71184;DHT22;58887;51.980;4.464;2023-12-07T09:38:07;3.17;89.87
71184;DHT22;58887;51.980;4.464;2023-12-07T09:40:32;3.19;90.16
71184;DHT22;58887;51.980;4.464;2023-12-07T09:42:58;3.17;90.19
71184;DHT22;58887;51.980;4.464;2023-12-07T09:45:25;3.23;89.92
71184;DHT22;58887;51.980;4.464;2023-12-07T09:47:52;3.09;90.17
71184;DHT22;58887;51.980;4.464;2023-12-07T09:50:21;3.27;89.98
71184;DHT22;58887;51.980;4.464;2023-12-07T09:52:51;3.36;89.72
71184;DHT22;58887;51.980;4.464;2023-12-07T09:55:17;3.40;89.74
71184;DHT22;58887;51.980;4.464;2023-12-07T09:57:43;3.48;89.48
71184;DHT22;58887;51.980;4.464;2023-12-07T10:00:11;3.54;89.45
71184;DHT22;58887;51.980;4.464;2023-12-07T10:02:40;3.53;89.31
71184;DHT22;58887;51.980;4.464;2023-12-07T10:05:08;3.58;89.23
71184;DHT22;58887;51.980;4.464;2023-12-07T10:07:38;3.48;89.11
71184;DHT22;58887;51.980;4.464;2023-12-07T10:10:05;3.57;89.32
71184;DHT22;58887;51.980;4.464;2023-12-07T10:12:34;3.48;89.45
71184;DHT22;58887;51.980;4.464;2023-12-07T10:15:12;3.67;89.22
71184;DHT22;58887;51.980;4.464;2023-12-07T10:17:52;3.71;89.12
71184;DHT22;58887;51.980;4.464;2023-12-07T10:20:22;3.82;88.67
71184;DHT22;58887;51.980;4.464;2023-12-07T10:23:06;3.75;88.71
71184;DHT22;58887;51.980;4.464;2023-12-07T10:25:39;3.81;88.73
71184;DHT22;58887;51.980;4.464;2023-12-07T10:28:07;3.89;88.32
71184;DHT22;58887;51.980;4.464;2023-12-07T10:30:37;3.98;88.26
71184;DHT22;58887;51.980;4.464;2023-12-07T10:33:06;4.16;88.11
71184;DHT22;58887;51.980;4.464;2023-12-07T10:35:53;4.39;87.51
71184;DHT22;58887;51.980;4.464;2023-12-07T10:38:19;4.42;87.55
71184;DHT22;58887;51.980;4.464;2023-12-07T10:40:46;4.50;87.08
71184;DHT22;58887;51.980;4.464;2023-12-07T10:43:15;4.39;87.06
71184;DHT22;58887;51.980;4.464;2023-12-07T10:45:42;4.33;87.30
71184;DHT22;58887;51.980;4.464;2023-12-07T10:48:09;4.40;86.92
71184;DHT22;58887;51.980;4.464;2023-12-07T10:50:41;4.30;86.56
71184;DHT22;58887;51.980;4.464;2023-12-07T10:53:15;4.26;86.83
71184;DHT22;58887;51.980;4.464;2023-12-07T10:55:56;4.40;86.51
71184;DHT22;58887;51.980;4.464;2023-12-07T10:58:25;4.35;86.16
71184;DHT22;58887;51.980;4.464;2023-12-07T11:00:55;4.33;85.76
71184;DHT22;58887;51.980;4.464;2023-12-07T11:03:21;4.35;85.87
71184;DHT22;58887;51.980;4.464;2023-12-07T11:05:50;4.47;85.99
71184;DHT22;58887;51.980;4.464;2023-12-07T11:08:21;4.63;85.78
71184;DHT22;58887;51.980;4.464;2023-12-07T11:11:06;4.74;85.40
71184;DHT22;58887;51.980;4.464;2023-12-07T11:13:37;4.77;85.19
71184;DHT22;58887;51.980;4.464;2023-12-07T11:16:03;4.71;85.10
71184;DHT22;58887;51.980;4.464;2023-12-07T11:18:29;4.39;84.91
71184;DHT22;58887;51.980;4.464;2023-12-07T11:20:56;4.50;85.53
71184;DHT22;58887;51.980;4.464;2023-12-07T11:23:22;4.68;84.87
71184;DHT22;58887;51.980;4.464;2023-12-07T11:25:51;4.61;84.49
71184;DHT22;58887;51.980;4.464;2023-12-07T11:28:17;4.50;84.95
71184;DHT22;58887;51.980;4.464;2023-12-07T11:30:45;4.75;85.06
71184;DHT22;58887;51.980;4.464;2023-12-07T11:33:12;5.08;84.60
71184;DHT22;58887;51.980;4.464;2023-12-07T11:38:28;5.95;82.29
71184;DHT22;58887;51.980;4.464;2023-12-07T11:40:55;5.87;81.07
71184;DHT22;58887;51.980;4.464;2023-12-07T11:46:04;5.67;81.05
71184;DHT22;58887;51.980;4.464;2023-12-07T11:48:29;5.93;80.60
71184;DHT22;58887;51.980;4.464;2023-12-07T11:53:32;5.66;80.15
71184;DHT22;58887;51.980;4.464;2023-12-07T11:56:00;5.71;80.87
71184;DHT22;58887;51.980;4.464;2023-12-07T11:58:27;5.83;80.63
71184;DHT22;58887;51.980;4.464;2023-12-07T12:00:55;5.63;80.36
71184;DHT22;58887;51.980;4.464;2023-12-07T12:03:25;5.74;80.67
71184;DHT22;58887;51.980;4.464;2023-12-07T12:05:53;5.65;80.53
71184;DHT22;58887;51.980;4.464;2023-12-07T12:08:20;5.73;80.66
71184;DHT22;58887;51.980;4.464;2023-12-07T12:10:46;5.80;80.09
71184;DHT22;58887;51.980;4.464;2023-12-07T12:13:12;5.71;80.56
71184;DHT22;58887;51.980;4.464;2023-12-07T12:15:39;5.35;80.88
71184;DHT22;58887;51.980;4.464;2023-12-07T12:18:06;5.29;81.61
71184;DHT22;58887;51.980;4.464;2023-12-07T12:20:32;5.38;81.83
71184;DHT22;58887;51.980;4.464;2023-12-07T12:22:58;5.47;81.61
71184;DHT22;58887;51.980;4.464;2023-12-07T12:25:28;5.47;81.45
71184;DHT22;58887;51.980;4.464;2023-12-07T12:28:03;5.49;81.63
71184;DHT22;58887;51.980;4.464;2023-12-07T12:30:31;5.45;81.17
71184;DHT22;58887;51.980;4.464;2023-12-07T12:32:58;5.40;81.19
71184;DHT22;58887;51.980;4.464;2023-12-07T12:35:31;5.69;81.50
71184;DHT22;58887;51.980;4.464;2023-12-07T12:37:57;5.65;80.64
71184;DHT22;58887;51.980;4.464;2023-12-07T12:40:23;5.59;81.00
71184;DHT22;58887;51.980;4.464;2023-12-07T12:42:52;5.47;80.81
71184;DHT22;58887;51.980;4.464;2023-12-07T12:45:19;5.25;82.03
71184;DHT22;58887;51.980;4.464;2023-12-07T12:47:46;5.38;81.88
71184;DHT22;58887;51.980;4.464;2023-12-07T12:53:13;5.43;81.33
71184;DHT22;58887;51.980;4.464;2023-12-07T12:55:41;5.46;81.47
71184;DHT22;58887;51.980;4.464;2023-12-07T12:58:08;5.57;81.48
71184;DHT22;58887;51.980;4.464;2023-12-07T13:00:37;5.55;81.28
71184;DHT22;58887;51.980;4.464;2023-12-07T13:03:04;5.39;81.63
71184;DHT22;58887;51.980;4.464;2023-12-07T13:05:30;5.40;82.22
71184;DHT22;58887;51.980;4.464;2023-12-07T13:07:58;5.46;81.83
71184;DHT22;58887;51.980;4.464;2023-12-07T13:10:25;5.56;81.62
71184;DHT22;58887;51.980;4.464;2023-12-07T13:12:51;5.55;81.50
71184;DHT22;58887;51.980;4.464;2023-12-07T13:15:16;5.45;81.69
71184;DHT22;58887;51.980;4.464;2023-12-07T13:17:43;5.53;81.86
71184;DHT22;58887;51.980;4.464;2023-12-07T13:20:09;5.52;81.88
71184;DHT22;58887;51.980;4.464;2023-12-07T13:22:42;5.53;82.07
71184;DHT22;58887;51.980;4.464;2023-12-07T13:25:09;5.42;82.17
71184;DHT22;58887;51.980;4.464;2023-12-07T13:27:36;5.50;81.72
71184;DHT22;58887;51.980;4.464;2023-12-07T13:30:04;5.36;81.91
71184;DHT22;58887;51.980;4.464;2023-12-07T13:32:36;5.35;82.35
71184;DHT22;58887;51.980;4.464;2023-12-07T13:35:05;5.49;82.38
71184;DHT22;58887;51.980;4.464;2023-12-07T13:37:31;5.26;82.21
71184;DHT22;58887;51.980;4.464;2023-12-07T13:40:01;5.29;82.39
71184;DHT22;58887;51.980;4.464;2023-12-07T13:42:30;5.36;82.41
71184;DHT22;58887;51.980;4.464;2023-12-07T13:44:59;5.29;82.73
71184;DHT22;58887;51.980;4.464;2023-12-07T13:47:27;5.26;82.59
71184;DHT22;58887;51.980;4.464;2023-12-07T13:50:03;5.36;82.52
71184;DHT22;58887;51.980;4.464;2023-12-07T13:52:30;5.38;82.40
71184;DHT22;58887;51.980;4.464;2023-12-07T13:54:57;5.39;82.20
71184;DHT22;58887;51.980;4.464;2023-12-07T13:57:24;5.42;82.20
71184;DHT22;58887;51.980;4.464;2023-12-07T13:59:50;5.38;82.12
71184;DHT22;58887;51.980;4.464;2023-12-07T14:02:16;5.43;82.29
71184;DHT22;58887;51.980;4.464;2023-12-07T14:04:42;5.35;82.30
71184;DHT22;58887;51.980;4.464;2023-12-07T14:07:12;5.26;82.37
71184;DHT22;58887;51.980;4.464;2023-12-07T14:09:40;5.34;82.50
71184;DHT22;58887;51.980;4.464;2023-12-07T14:12:06;5.35;82.31
71184;DHT22;58887;51.980;4.464;2023-12-07T14:14:32;5.16;82.79
71184;DHT22;58887;51.980;4.464;2023-12-07T14:16:58;5.12;82.98
71184;DHT22;58887;51.980;4.464;2023-12-07T14:19:23;5.21;82.94
71184;DHT22;58887;51.980;4.464;2023-12-07T14:21:49;5.16;82.75
71184;DHT22;58887;51.980;4.464;2023-12-07T14:24:14;5.02;83.30
71184;DHT22;58887;51.980;4.464;2023-12-07T14:26:44;4.98;83.63
71184;DHT22;58887;51.980;4.464;2023-12-07T14:29:09;5.11;83.33
71184;DHT22;58887;51.980;4.464;2023-12-07T14:31:43;4.97;83.61
71184;DHT22;58887;51.980;4.464;2023-12-07T14:34:09;4.94;83.82
71184;DHT22;58887;51.980;4.464;2023-12-07T14:36:34;5.02;83.37
71184;DHT22;58887;51.980;4.464;2023-12-07T14:39:00;5.01;83.30
71184;DHT22;58887;51.980;4.464;2023-12-07T14:41:25;4.92;83.53
71184;DHT22;58887;51.980;4.464;2023-12-07T14:43:51;4.89;83.50
71184;DHT22;58887;51.980;4.464;2023-12-07T14:46:17;4.94;83.57
71184;DHT22;58887;51.980;4.464;2023-12-07T14:48:43;4.95;83.32
71184;DHT22;58887;51.980;4.464;2023-12-07T14:51:09;4.98;83.36
71184;DHT22;58887;51.980;4.464;2023-12-07T14:53:34;4.97;83.05
71184;DHT22;58887;51.980;4.464;2023-12-07T14:56:00;4.85;83.53
71184;DHT22;58887;51.980;4.464;2023-12-07T14:58:25;4.88;83.45
71184;DHT22;58887;51.980;4.464;2023-12-07T15:00:52;4.87;83.35
71184;DHT22;58887;51.980;4.464;2023-12-07T15:03:17;4.77;83.46
71184;DHT22;58887;51.980;4.464;2023-12-07T15:05:46;4.85;83.73
71184;DHT22;58887;51.980;4.464;2023-12-07T15:08:12;4.70;83.86
71184;DHT22;58887;51.980;4.464;2023-12-07T15:10:37;4.75;83.93
71184;DHT22;58887;51.980;4.464;2023-12-07T15:13:03;4.73;83.73
71184;DHT22;58887;51.980;4.464;2023-12-07T15:15:29;4.73;83.79
71184;DHT22;58887;51.980;4.464;2023-12-07T15:17:55;4.67;83.93
71184;DHT22;58887;51.980;4.464;2023-12-07T15:20:21;4.54;84.34
71184;DHT22;58887;51.980;4.464;2023-12-07T15:22:47;4.46;84.67
71184;DHT22;58887;51.980;4.464;2023-12-07T15:25:12;4.52;84.55
71184;DHT22;58887;51.980;4.464;2023-12-07T15:27:38;4.47;84.59
71184;DHT22;58887;51.980;4.464;2023-12-07T15:30:05;4.54;84.46
71184;DHT22;58887;51.980;4.464;2023-12-07T15:32:33;4.50;84.38
71184;DHT22;58887;51.980;4.464;2023-12-07T15:34:58;4.50;84.38
71184;DHT22;58887;51.980;4.464;2023-12-07T15:37:24;4.40;84.52
71184;DHT22;58887;51.980;4.464;2023-12-07T15:39:50;4.45;84.55
71184;DHT22;58887;51.980;4.464;2023-12-07T15:42:16;4.39;84.64
71184;DHT22;58887;51.980;4.464;2023-12-07T15:44:42;4.39;84.55
71184;DHT22;58887;51.980;4.464;2023-12-07T15:47:07;4.35;84.59
71184;DHT22;58887;51.980;4.464;2023-12-07T15:49:34;4.30;84.64
71184;DHT22;58887;51.980;4.464;2023-12-07T15:52:00;4.30;84.69
71184;DHT22;58887;51.980;4.464;2023-12-07T15:54:26;4.32;84.75
71184;DHT22;58887;51.980;4.464;2023-12-07T15:56:52;4.20;84.74